SAS666 ENGM-ENVA
Flight info
| Callsign | SAS666 |
|---|---|
| Flight time | 0h 41m |
| Altitude | 30000 |
| Route | RIBBE DCT GIGNI DCT VEVOD |
| Aircraft | A321/M-SDE3FGHIRWY/LB1 |
Departure
| Time | 2026-05-04 15:39 |
|---|---|
| Airport | Oslo-Gardermoen International Airport (ENGM) |
Arrival
| Time | 2026-05-04 16:20 |
|---|---|
| Airport | Trondheim Airport, Værnes (ENVA) |
| Time | Latitude | Longitude | Altitude | Speed | Heading |
|---|---|---|---|---|---|
| 2026-05-04 15:30 | 60.19495 | 11.09194 | 685 ft | 0 kts | 16° |
| 2026-05-04 15:30 | 60.19455 | 11.09171 | 679 ft | 0 kts | 16° |
| 2026-05-04 15:32 | 60.19466 | 11.09125 | 682 ft | 7 kts | 273° |
| 2026-05-04 15:33 | 60.19504 | 11.08726 | 679 ft | 20 kts | 284° |
| 2026-05-04 15:34 | 60.19721 | 11.08639 | 679 ft | 15 kts | 16° |
| 2026-05-04 15:34 | 60.19825 | 11.08699 | 679 ft | 16 kts | 16° |
| 2026-05-04 15:34 | 60.20042 | 11.08825 | 680 ft | 17 kts | 16° |
| 2026-05-04 15:35 | 60.20274 | 11.08961 | 681 ft | 18 kts | 16° |
| 2026-05-04 15:35 | 60.20395 | 11.09032 | 682 ft | 18 kts | 16° |
| 2026-05-04 15:35 | 60.20521 | 11.09107 | 682 ft | 19 kts | 17° |
| 2026-05-04 15:36 | 60.20786 | 11.09257 | 684 ft | 20 kts | 14° |
| 2026-05-04 15:36 | 60.20919 | 11.09325 | 685 ft | 20 kts | 14° |
| 2026-05-04 15:36 | 60.21059 | 11.09393 | 686 ft | 21 kts | 13° |
| 2026-05-04 15:37 | 60.21191 | 11.09496 | 682 ft | 21 kts | 27° |
| 2026-05-04 15:37 | 60.21331 | 11.09586 | 684 ft | 21 kts | 15° |
| 2026-05-04 15:37 | 60.21477 | 11.09648 | 686 ft | 20 kts | 344° |
| 2026-05-04 15:37 | 60.21565 | 11.09423 | 684 ft | 22 kts | 281° |
| 2026-05-04 15:38 | 60.21559 | 11.09154 | 681 ft | 18 kts | 223° |
| 2026-05-04 15:38 | 60.21481 | 11.09094 | 684 ft | 11 kts | 196° |
| 2026-05-04 15:38 | 60.21231 | 11.08948 | 679 ft | 73 kts | 196° |
| 2026-05-04 15:38 | 60.20529 | 11.08543 | 679 ft | 134 kts | 196° |
| 2026-05-04 15:39 | 60.19497 | 11.07974 | 916 ft | 162 kts | 199° |
| 2026-05-04 15:39 | 60.18397 | 11.07401 | 1494 ft | 167 kts | 200° |
| 2026-05-04 15:39 | 60.16035 | 11.06235 | 2562 ft | 181 kts | 200° |
| 2026-05-04 15:40 | 60.14789 | 11.05641 | 3153 ft | 186 kts | 199° |
| 2026-05-04 15:40 | 60.13933 | 11.05244 | 3557 ft | 187 kts | 200° |
| 2026-05-04 15:40 | 60.12658 | 11.04669 | 4152 ft | 188 kts | 199° |
| 2026-05-04 15:40 | 60.11389 | 11.04120 | 4746 ft | 190 kts | 199° |
| 2026-05-04 15:41 | 60.10100 | 11.03448 | 5228 ft | 195 kts | 211° |
| 2026-05-04 15:41 | 60.09027 | 11.01698 | 5381 ft | 208 kts | 239° |
| 2026-05-04 15:41 | 60.08621 | 10.98857 | 5609 ft | 224 kts | 272° |
| 2026-05-04 15:41 | 60.09210 | 10.95892 | 5972 ft | 247 kts | 308° |
| 2026-05-04 15:42 | 60.10744 | 10.94117 | 6568 ft | 270 kts | 343° |
| 2026-05-04 15:42 | 60.12673 | 10.94259 | 7276 ft | 287 kts | 7° |
| 2026-05-04 15:42 | 60.14594 | 10.95545 | 8037 ft | 294 kts | 17° |
| 2026-05-04 15:42 | 60.16468 | 10.97261 | 8809 ft | 298 kts | 20° |
| 2026-05-04 15:43 | 60.18339 | 10.99071 | 9565 ft | 300 kts | 20° |
| 2026-05-04 15:43 | 60.20261 | 11.00854 | 10013 ft | 313 kts | 18° |
| 2026-05-04 15:43 | 60.22310 | 11.02626 | 10152 ft | 335 kts | 17° |
| 2026-05-04 15:43 | 60.24516 | 11.04430 | 10465 ft | 348 kts | 16° |
| 2026-05-04 15:44 | 60.26787 | 11.06222 | 11060 ft | 352 kts | 15° |
| 2026-05-04 15:44 | 60.29087 | 11.08008 | 11744 ft | 355 kts | 15° |
| 2026-05-04 15:44 | 60.31406 | 11.09799 | 12386 ft | 358 kts | 15° |
| 2026-05-04 15:44 | 60.33746 | 11.11607 | 13024 ft | 362 kts | 14° |
| 2026-05-04 15:45 | 60.36100 | 11.13431 | 13662 ft | 365 kts | 14° |
| 2026-05-04 15:45 | 60.38483 | 11.15279 | 14233 ft | 368 kts | 14° |
| 2026-05-04 15:45 | 60.40886 | 11.17147 | 14776 ft | 372 kts | 13° |
| 2026-05-04 15:45 | 60.43313 | 11.19042 | 15309 ft | 376 kts | 13° |
| 2026-05-04 15:46 | 60.45769 | 11.20971 | 15864 ft | 381 kts | 12° |
| 2026-05-04 15:46 | 60.48254 | 11.22928 | 16370 ft | 386 kts | 12° |
| 2026-05-04 15:46 | 60.50770 | 11.24913 | 16905 ft | 390 kts | 11° |
| 2026-05-04 15:46 | 60.53312 | 11.26917 | 17465 ft | 394 kts | 11° |
| 2026-05-04 15:47 | 60.55886 | 11.28950 | 17992 ft | 399 kts | 10° |
| 2026-05-04 15:47 | 60.58483 | 11.31002 | 18536 ft | 401 kts | 11° |
| 2026-05-04 15:47 | 60.61088 | 11.33069 | 19044 ft | 404 kts | 11° |
| 2026-05-04 15:47 | 60.63719 | 11.35156 | 19518 ft | 407 kts | 10° |
| 2026-05-04 15:48 | 60.66338 | 11.37233 | 19969 ft | 411 kts | 10° |
| 2026-05-04 15:48 | 60.69014 | 11.39360 | 20404 ft | 414 kts | 10° |
| 2026-05-04 15:48 | 60.74439 | 11.43408 | 21231 ft | 410 kts | 2° |
| 2026-05-04 15:49 | 60.77206 | 11.44441 | 21638 ft | 400 kts | 353° |
| 2026-05-04 15:49 | 60.79972 | 11.44808 | 22064 ft | 398 kts | 350° |
| 2026-05-04 15:49 | 60.82751 | 11.45132 | 22491 ft | 401 kts | 350° |
| 2026-05-04 15:49 | 60.85547 | 11.45462 | 23026 ft | 404 kts | 350° |
| 2026-05-04 15:50 | 60.88352 | 11.45794 | 23347 ft | 409 kts | 350° |
| 2026-05-04 15:50 | 60.91220 | 11.46135 | 23674 ft | 412 kts | 351° |
| 2026-05-04 15:50 | 60.94086 | 11.46485 | 24014 ft | 414 kts | 351° |
| 2026-05-04 15:50 | 60.96972 | 11.46845 | 24341 ft | 417 kts | 351° |
| 2026-05-04 15:51 | 60.99870 | 11.47212 | 24698 ft | 418 kts | 351° |
| 2026-05-04 15:51 | 61.02779 | 11.47585 | 25046 ft | 420 kts | 351° |
| 2026-05-04 15:51 | 61.05704 | 11.47960 | 25366 ft | 422 kts | 351° |
| 2026-05-04 15:51 | 61.08639 | 11.48299 | 25686 ft | 422 kts | 350° |
| 2026-05-04 15:52 | 61.11572 | 11.48453 | 26017 ft | 421 kts | 348° |
| 2026-05-04 15:52 | 61.14498 | 11.48456 | 26309 ft | 421 kts | 347° |
| 2026-05-04 15:52 | 61.17435 | 11.48386 | 26638 ft | 423 kts | 347° |
| 2026-05-04 15:52 | 61.20388 | 11.48303 | 26971 ft | 424 kts | 347° |
| 2026-05-04 15:53 | 61.23351 | 11.48242 | 27281 ft | 427 kts | 347° |
| 2026-05-04 15:53 | 61.26329 | 11.48217 | 27591 ft | 429 kts | 348° |
| 2026-05-04 15:53 | 61.29303 | 11.48217 | 27914 ft | 432 kts | 348° |
| 2026-05-04 15:53 | 61.32321 | 11.48232 | 28245 ft | 434 kts | 348° |
| 2026-05-04 15:54 | 61.35299 | 11.48256 | 28545 ft | 436 kts | 348° |
| 2026-05-04 15:54 | 61.38345 | 11.48282 | 28843 ft | 438 kts | 348° |
| 2026-05-04 15:54 | 61.41398 | 11.48303 | 29130 ft | 439 kts | 348° |
| 2026-05-04 15:54 | 61.44464 | 11.48325 | 29514 ft | 441 kts | 348° |
| 2026-05-04 15:55 | 61.47542 | 11.48346 | 29657 ft | 443 kts | 349° |
| 2026-05-04 15:55 | 61.50589 | 11.48383 | 29666 ft | 432 kts | 348° |
| 2026-05-04 15:55 | 61.56560 | 11.48432 | 29674 ft | 427 kts | 348° |
| 2026-05-04 15:56 | 61.62473 | 11.48429 | 29675 ft | 426 kts | 348° |
| 2026-05-04 15:56 | 61.68423 | 11.48419 | 29673 ft | 426 kts | 348° |
| 2026-05-04 15:57 | 61.74354 | 11.48423 | 29673 ft | 426 kts | 348° |
| 2026-05-04 15:57 | 61.80332 | 11.48447 | 29658 ft | 431 kts | 349° |
| 2026-05-04 15:58 | 61.86407 | 11.48467 | 29687 ft | 445 kts | 349° |
| 2026-05-04 15:58 | 61.92678 | 11.48477 | 29685 ft | 453 kts | 350° |
| 2026-05-04 15:59 | 61.98930 | 11.48511 | 29689 ft | 453 kts | 349° |
| 2026-05-04 15:59 | 62.02086 | 11.48067 | 29687 ft | 440 kts | 344° |
| 2026-05-04 15:59 | 62.05064 | 11.47421 | 29695 ft | 419 kts | 343° |
| 2026-05-04 16:00 | 62.07922 | 11.46797 | 29050 ft | 409 kts | 344° |
| 2026-05-04 16:00 | 62.10735 | 11.46148 | 28294 ft | 403 kts | 343° |
| 2026-05-04 16:00 | 62.13503 | 11.45487 | 27578 ft | 397 kts | 343° |
| 2026-05-04 16:00 | 62.16147 | 11.44846 | 26910 ft | 392 kts | 343° |
| 2026-05-04 16:01 | 62.18859 | 11.44194 | 26236 ft | 387 kts | 343° |
| 2026-05-04 16:01 | 62.21528 | 11.43566 | 25573 ft | 382 kts | 343° |
| 2026-05-04 16:01 | 62.24163 | 11.42953 | 24934 ft | 378 kts | 343° |
| 2026-05-04 16:01 | 62.26757 | 11.42349 | 24320 ft | 373 kts | 343° |
| 2026-05-04 16:02 | 62.29322 | 11.41742 | 23721 ft | 369 kts | 343° |
| 2026-05-04 16:02 | 62.31864 | 11.41138 | 23077 ft | 365 kts | 343° |
| 2026-05-04 16:02 | 62.36860 | 11.39944 | 21634 ft | 357 kts | 345° |
| 2026-05-04 16:03 | 62.39224 | 11.39379 | 20900 ft | 354 kts | 345° |
| 2026-05-04 16:03 | 62.41657 | 11.38802 | 20194 ft | 350 kts | 346° |
| 2026-05-04 16:03 | 62.44062 | 11.38235 | 19499 ft | 346 kts | 346° |
| 2026-05-04 16:03 | 62.46447 | 11.37673 | 18830 ft | 342 kts | 346° |
| 2026-05-04 16:04 | 62.48806 | 11.37120 | 18184 ft | 339 kts | 347° |
| 2026-05-04 16:04 | 62.53446 | 11.36018 | 16820 ft | 330 kts | 347° |
| 2026-05-04 16:04 | 62.55689 | 11.35481 | 16554 ft | 330 kts | 347° |
| 2026-05-04 16:05 | 62.57977 | 11.34925 | 16213 ft | 330 kts | 347° |
| 2026-05-04 16:05 | 62.60258 | 11.34371 | 15933 ft | 329 kts | 347° |
| 2026-05-04 16:05 | 62.64793 | 11.33277 | 15390 ft | 326 kts | 348° |
| 2026-05-04 16:06 | 62.67046 | 11.32738 | 15122 ft | 324 kts | 348° |
| 2026-05-04 16:06 | 62.72950 | 11.31293 | 14465 ft | 318 kts | 348° |
| 2026-05-04 16:07 | 62.75883 | 11.30584 | 14129 ft | 316 kts | 348° |
| 2026-05-04 16:07 | 62.82115 | 11.29097 | 13156 ft | 285 kts | 347° |
| 2026-05-04 16:08 | 62.84093 | 11.28634 | 12813 ft | 286 kts | 348° |
| 2026-05-04 16:08 | 62.90002 | 11.27711 | 11782 ft | 282 kts | 350° |
| 2026-05-04 16:09 | 62.93884 | 11.27165 | 11095 ft | 275 kts | 350° |
| 2026-05-04 16:09 | 62.97663 | 11.26602 | 10418 ft | 271 kts | 350° |
| 2026-05-04 16:10 | 63.01407 | 11.26015 | 9898 ft | 270 kts | 349° |
| 2026-05-04 16:11 | 63.07053 | 11.25119 | 9229 ft | 273 kts | 349° |
| 2026-05-04 16:11 | 63.08934 | 11.24828 | 8869 ft | 269 kts | 349° |
| 2026-05-04 16:12 | 63.14505 | 11.23966 | 7824 ft | 265 kts | 349° |
| 2026-05-04 16:12 | 63.19961 | 11.23115 | 6796 ft | 259 kts | 348° |
| 2026-05-04 16:13 | 63.23542 | 11.22545 | 6124 ft | 256 kts | 348° |
| 2026-05-04 16:13 | 63.27073 | 11.21980 | 5450 ft | 257 kts | 348° |
| 2026-05-04 16:14 | 63.30589 | 11.21438 | 4890 ft | 251 kts | 349° |
| 2026-05-04 16:14 | 63.34113 | 11.21217 | 4108 ft | 251 kts | 353° |
| 2026-05-04 16:15 | 63.39226 | 11.21310 | 3222 ft | 231 kts | 353° |
| 2026-05-04 16:16 | 63.42197 | 11.20691 | 2882 ft | 195 kts | 333° |
| 2026-05-04 16:16 | 63.44817 | 11.16130 | 2251 ft | 137 kts | 298° |
| 2026-05-04 16:17 | 63.45552 | 11.12458 | 1869 ft | 127 kts | 281° |
| 2026-05-04 16:18 | 63.45722 | 11.06618 | 1269 ft | 127 kts | 269° |
| 2026-05-04 16:18 | 63.45727 | 11.04630 | 1079 ft | 128 kts | 270° |
| 2026-05-04 16:19 | 63.45741 | 10.98578 | 527 ft | 128 kts | 270° |
| 2026-05-04 16:19 | 63.45751 | 10.94630 | 144 ft | 127 kts | 272° |
| 2026-05-04 16:20 | 63.45725 | 10.91518 | 37 ft | 7 kts | 170° |
| 2026-05-04 16:20 | 63.45564 | 10.91484 | 39 ft | 8 kts | 184° |
| 2026-05-04 16:21 | 63.45501 | 10.91483 | 39 ft | 0 kts | 182° |
| 2026-05-04 16:55 | 63.45502 | 10.91483 | 39 ft | 2 kts | 182° |
| 2026-05-04 16:55 | 63.45540 | 10.91486 | 38 ft | 0 kts | 180° |
| 2026-05-04 16:57 | 63.45536 | 10.91487 | 39 ft | 2 kts | 174° |
| 2026-05-04 16:58 | 63.45557 | 10.91833 | 36 ft | 13 kts | 75° |
| 2026-05-04 16:58 | 63.45582 | 10.92018 | 38 ft | 13 kts | 72° |
| 2026-05-04 16:59 | 63.45592 | 10.92461 | 42 ft | 20 kts | 89° |
| 2026-05-04 17:00 | 63.45593 | 10.93548 | 55 ft | 15 kts | 91° |
| 2026-05-04 17:00 | 63.45645 | 10.93964 | 58 ft | 2 kts | 47° |
| 2026-05-04 17:01 | 63.45746 | 10.94082 | 55 ft | 10 kts | 321° |
| 2026-05-04 17:01 | 63.45758 | 10.93721 | 56 ft | 45 kts | 270° |
| 2026-05-04 17:02 | 63.45765 | 10.90320 | 130 ft | 156 kts | 269° |
| 2026-05-04 17:02 | 63.45940 | 10.85468 | 1686 ft | 160 kts | 295° |
| 2026-05-04 17:03 | 63.46860 | 10.83780 | 2218 ft | 191 kts | 329° |
| 2026-05-04 17:03 | 63.48214 | 10.82778 | 2605 ft | 218 kts | 338° |
| 2026-05-04 17:03 | 63.51372 | 10.81017 | 3984 ft | 247 kts | 340° |
| 2026-05-04 17:04 | 63.54727 | 10.79056 | 6270 ft | 251 kts | 340° |
| 2026-05-04 17:04 | 63.58137 | 10.76884 | 8390 ft | 258 kts | 339° |
| 2026-05-04 17:05 | 63.61632 | 10.74552 | 10305 ft | 268 kts | 338° |
| 2026-05-04 17:05 | 63.65393 | 10.72031 | 10931 ft | 313 kts | 344° |
| 2026-05-04 17:06 | 63.69445 | 10.71912 | 12078 ft | 336 kts | 8° |
| 2026-05-04 17:06 | 63.71661 | 10.73475 | 12836 ft | 345 kts | 21° |
| 2026-05-04 17:07 | 63.75507 | 10.78099 | 14187 ft | 354 kts | 25° |
| 2026-05-04 17:07 | 63.76605 | 10.79464 | 14529 ft | 356 kts | 25° |
| 2026-05-04 17:07 | 63.79593 | 10.83161 | 15539 ft | 361 kts | 25° |
| 2026-05-04 17:07 | 63.81779 | 10.85862 | 16237 ft | 365 kts | 25° |
| 2026-05-04 17:08 | 63.83714 | 10.88250 | 16840 ft | 368 kts | 25° |
| 2026-05-04 17:08 | 63.88338 | 10.93980 | 18217 ft | 376 kts | 26° |
| 2026-05-04 17:08 | 63.90648 | 10.96848 | 18799 ft | 380 kts | 26° |
| 2026-05-04 17:09 | 63.92953 | 10.99718 | 19358 ft | 384 kts | 26° |
| 2026-05-04 17:09 | 63.95315 | 11.02668 | 19858 ft | 389 kts | 26° |
| 2026-05-04 17:09 | 63.97704 | 11.05659 | 20412 ft | 392 kts | 26° |
| 2026-05-04 17:10 | 64.02530 | 11.11721 | 21315 ft | 398 kts | 26° |
| 2026-05-04 17:10 | 64.09885 | 11.21003 | 22612 ft | 408 kts | 26° |
| 2026-05-04 17:11 | 64.12381 | 11.24172 | 23043 ft | 412 kts | 26° |
| 2026-05-04 17:11 | 64.14898 | 11.27370 | 23423 ft | 415 kts | 26° |
| 2026-05-04 17:11 | 64.19505 | 11.35618 | 24061 ft | 427 kts | 45° |
| 2026-05-04 17:12 | 64.21333 | 11.40939 | 24371 ft | 433 kts | 53° |
| 2026-05-04 17:12 | 64.24805 | 11.52403 | 24991 ft | 439 kts | 53° |